createdAt,value
2023-02-16T00:02:05.391Z,32.20
2023-02-16T00:06:23.603Z,28.90
2023-02-16T00:10:31.795Z,30.90
2023-02-16T00:14:39.944Z,33.20
2023-02-16T00:18:48.209Z,12.00
2023-02-16T00:22:56.361Z,49.00
2023-02-16T00:27:04.525Z,56.10
2023-02-16T00:31:15.941Z,49.40
2023-02-16T00:35:25.239Z,42.20
2023-02-16T00:39:32.236Z,35.70
2023-02-16T00:43:39.564Z,34.10
2023-02-16T00:47:38.677Z,28.10
2023-02-16T00:51:46.838Z,26.30
2023-02-16T00:56:01.190Z,32.90
2023-02-16T01:00:10.402Z,34.40
2023-02-16T01:04:10.986Z,15.30
2023-02-16T01:08:25.288Z,33.10
2023-02-16T01:12:33.605Z,34.70
2023-02-16T01:16:41.949Z,27.20
2023-02-16T01:20:50.140Z,32.10
2023-02-16T01:24:58.313Z,30.60
2023-02-16T01:29:21.973Z,32.30
2023-02-16T01:33:30.101Z,52.20
2023-02-16T01:37:29.264Z,47.20
2023-02-16T01:41:43.143Z,59.50
2023-02-16T01:45:51.329Z,41.30
2023-02-16T01:50:02.119Z,47.50
2023-02-16T01:54:17.392Z,41.10
2023-02-16T02:02:13.387Z,33.50
2023-02-16T02:06:28.777Z,33.90
2023-02-16T02:10:43.008Z,36.70
2023-02-16T02:14:54.637Z,25.30
2023-02-16T02:19:03.080Z,26.60
2023-02-16T02:23:18.914Z,29.70
2023-02-16T02:27:45.260Z,12.90
2023-02-16T02:31:59.550Z,28.50
2023-02-16T02:36:18.590Z,29.10
2023-02-16T02:40:47.885Z,29.20
2023-02-16T02:44:49.876Z,22.30
2023-02-16T02:52:45.795Z,29.10
2023-02-16T02:56:58.276Z,28.40
2023-02-16T03:01:21.530Z,32.40
2023-02-16T03:05:18.412Z,34.50
2023-02-16T03:09:26.560Z,33.80
2023-02-16T03:13:29.547Z,27.00
2023-02-16T03:17:52.471Z,13.50
2023-02-16T03:22:00.261Z,29.80
2023-02-16T03:26:06.888Z,31.90
2023-02-16T03:30:05.240Z,34.20
2023-02-16T03:34:13.384Z,15.60
2023-02-16T03:38:21.686Z,40.80
2023-02-16T03:42:29.873Z,29.00
2023-02-16T03:46:38.039Z,14.60
2023-02-16T03:50:47.135Z,28.00
2023-02-16T03:54:46.782Z,27.70
2023-02-16T03:58:54.934Z,27.00
2023-02-16T04:03:03.226Z,28.90
2023-02-16T04:07:11.397Z,29.80
2023-02-16T04:11:19.546Z,25.30
2023-02-16T04:15:28.765Z,14.50
2023-02-16T04:19:36.974Z,25.00
2023-02-16T04:23:47.132Z,26.00
2023-02-16T04:27:55.374Z,29.60
2023-02-16T04:32:03.688Z,34.60
2023-02-16T04:36:12.930Z,30.10
2023-02-16T04:40:21.087Z,18.30
2023-02-16T04:44:29.286Z,36.70
2023-02-16T04:48:37.508Z,34.60
2023-02-16T04:52:44.575Z,34.80
2023-02-16T04:56:22.621Z,31.70
2023-02-16T05:03:51.556Z,27.50
2023-02-16T05:07:59.756Z,26.90
2023-02-16T05:11:59.233Z,28.40
2023-02-16T05:15:47.398Z,31.30
2023-02-16T05:19:25.332Z,33.50
2023-02-16T05:22:53.166Z,35.60
2023-02-16T05:26:20.144Z,32.70
2023-02-16T05:30:21.044Z,34.70
2023-02-16T05:34:30.148Z,35.70
2023-02-16T05:38:39.323Z,37.00
2023-02-16T05:42:39.581Z,44.50
2023-02-16T05:46:46.551Z,19.40
2023-02-16T05:50:44.607Z,13.50
2023-02-16T05:54:52.866Z,18.40
2023-02-16T05:58:25.574Z,40.40
2023-02-16T06:02:33.833Z,34.10
2023-02-16T06:06:04.853Z,17.00
2023-02-16T06:09:32.922Z,47.10
2023-02-16T06:13:10.672Z,52.10
2023-02-16T06:17:08.627Z,49.60
2023-02-16T06:20:49.267Z,51.10
2023-02-16T06:24:17.400Z,44.10
2023-02-16T06:27:46.930Z,42.00
2023-02-16T06:30:27.360Z,48.60
2023-02-16T06:34:09.556Z,59.70
2023-02-16T06:37:22.381Z,77.10
2023-02-16T06:40:11.616Z,66.30
2023-02-16T06:43:09.915Z,44.90
2023-02-16T06:46:18.694Z,47.40
2023-02-16T06:49:28.551Z,49.60
2023-02-16T06:52:41.288Z,45.30
2023-02-16T06:55:44.697Z,40.70
2023-02-16T06:58:17.669Z,37.30
2023-02-16T07:01:31.166Z,37.60
2023-02-16T07:04:45.231Z,42.10
2023-02-16T07:07:13.271Z,41.30
2023-02-16T07:09:46.808Z,41.70
2023-02-16T07:12:40.260Z,41.20
2023-02-16T07:16:16.852Z,41.90
2023-02-16T07:19:13.565Z,49.90
2023-02-16T07:21:55.556Z,39.20
2023-02-16T07:24:50.083Z,96.80
2023-02-16T07:27:19.968Z,51.20
2023-02-16T07:29:59.219Z,36.80
2023-02-16T07:33:10.979Z,33.60
2023-02-16T07:36:20.336Z,29.60
2023-02-16T07:38:55.500Z,39.00
2023-02-16T07:42:06.479Z,34.80
2023-02-16T07:45:15.947Z,32.30
2023-02-16T07:48:14.444Z,44.70
2023-02-16T07:51:25.277Z,31.70
2023-02-16T07:54:08.665Z,31.10
2023-02-16T07:57:09.042Z,37.80
2023-02-16T08:00:07.872Z,32.10
2023-02-16T08:02:51.981Z,26.50
2023-02-16T08:05:59.465Z,26.90
2023-02-16T08:09:24.408Z,24.90
2023-02-16T08:12:55.202Z,25.20
2023-02-16T08:15:34.588Z,22.80
2023-02-16T08:18:55.487Z,23.10
2023-02-16T08:22:06.578Z,20.50
2023-02-16T08:25:16.733Z,48.10
2023-02-16T08:28:39.957Z,20.20
2023-02-16T08:31:38.900Z,22.30
2023-02-16T08:35:07.873Z,26.30
2023-02-16T08:39:05.846Z,25.90
2023-02-16T08:41:57.272Z,22.10
2023-02-16T08:45:25.587Z,33.00
2023-02-16T08:48:16.877Z,22.30
2023-02-16T08:50:54.043Z,42.20
2023-02-16T08:53:57.760Z,24.50
2023-02-16T08:57:07.710Z,22.80
2023-02-16T09:00:25.976Z,22.00
2023-02-16T09:03:15.454Z,36.30
2023-02-16T09:05:55.257Z,33.50
2023-02-16T09:08:43.304Z,25.70
2023-02-16T09:11:14.026Z,35.80
2023-02-16T09:14:06.456Z,25.80
2023-02-16T09:16:38.982Z,23.50
2023-02-16T09:19:36.602Z,26.10
2023-02-16T09:22:06.870Z,28.80
2023-02-16T09:24:37.591Z,23.50
2023-02-16T09:27:35.130Z,25.70
2023-02-16T09:30:02.580Z,26.60
2023-02-16T09:33:32.700Z,24.30
2023-02-16T09:36:28.982Z,26.40
2023-02-16T09:39:36.178Z,20.70
2023-02-16T09:42:06.436Z,20.40
2023-02-16T09:44:33.844Z,15.60
2023-02-16T09:47:26.888Z,16.90
2023-02-16T09:49:58.594Z,15.50
2023-02-16T09:52:44.520Z,15.60
2023-02-16T09:55:41.067Z,15.90
2023-02-16T09:58:33.917Z,15.90
2023-02-16T10:01:39.110Z,15.30
2023-02-16T10:04:43.865Z,16.00
2023-02-16T10:08:14.612Z,14.80
2023-02-16T10:11:31.836Z,16.40
2023-02-16T10:14:16.208Z,15.00
2023-02-16T10:16:57.136Z,14.90
2023-02-16T10:19:29.661Z,13.70
2023-02-16T10:22:00.693Z,16.30
2023-02-16T10:24:31.620Z,15.00
2023-02-16T10:27:08.472Z,16.30
2023-02-16T10:29:45.784Z,15.70
2023-02-16T10:32:26.958Z,14.60
2023-02-16T10:35:19.468Z,15.60
2023-02-16T10:38:27.719Z,16.00
2023-02-16T10:41:14.097Z,14.00
2023-02-16T10:44:24.386Z,16.30
2023-02-16T10:47:36.746Z,19.60
2023-02-16T10:50:07.241Z,17.80
2023-02-16T10:53:06.657Z,16.70
2023-02-16T10:57:56.617Z,16.60
2023-02-16T11:00:28.567Z,14.50
2023-02-16T11:03:06.339Z,17.50
2023-02-16T11:05:38.702Z,15.80
2023-02-16T11:08:11.420Z,15.90
2023-02-16T11:10:50.781Z,16.50
2023-02-16T11:13:40.543Z,15.20
2023-02-16T11:16:13.898Z,15.90
2023-02-16T11:18:46.992Z,14.90
2023-02-16T11:21:50.453Z,14.30
2023-02-16T11:24:50.700Z,16.60
2023-02-16T11:27:25.988Z,15.80
2023-02-16T11:30:36.812Z,16.50
2023-02-16T11:33:28.629Z,17.10
2023-02-16T11:35:56.304Z,15.00
2023-02-16T11:38:37.105Z,15.30
2023-02-16T11:43:44.720Z,14.20
2023-02-16T11:46:16.884Z,17.40
2023-02-16T11:48:44.422Z,16.30
2023-02-16T11:51:12.604Z,16.70
2023-02-16T11:53:58.935Z,16.90
2023-02-16T11:56:46.757Z,18.20
2023-02-16T11:59:21.878Z,15.10
2023-02-16T12:01:54.653Z,15.80
2023-02-16T12:04:40.031Z,15.30
2023-02-16T12:07:32.545Z,18.10
2023-02-16T12:10:53.544Z,15.60
2023-02-16T12:13:38.094Z,14.80
2023-02-16T12:16:37.198Z,14.50
2023-02-16T12:19:27.247Z,16.00
2023-02-16T12:22:04.736Z,14.40
2023-02-16T12:25:00.881Z,14.30
2023-02-16T12:27:41.886Z,17.10
2023-02-16T12:30:18.405Z,16.00
2023-02-16T12:33:06.032Z,15.40
2023-02-16T12:35:46.251Z,15.50
2023-02-16T12:38:34.474Z,16.20
2023-02-16T12:41:14.086Z,18.70
2023-02-16T12:43:53.998Z,16.90
2023-02-16T12:46:47.285Z,17.90
2023-02-16T12:49:24.631Z,16.30
2023-02-16T12:52:57.874Z,17.30
2023-02-16T12:55:31.730Z,19.00
2023-02-16T12:58:53.531Z,17.00
2023-02-16T13:01:25.567Z,16.10
2023-02-16T13:04:17.709Z,16.80
2023-02-16T13:07:03.189Z,16.00
2023-02-16T13:10:21.726Z,17.40
2023-02-16T13:13:12.501Z,16.20
2023-02-16T13:15:55.024Z,17.40
2023-02-16T13:18:24.482Z,15.00
2023-02-16T13:21:19.463Z,15.60
2023-02-16T13:24:26.790Z,14.90
2023-02-16T13:27:12.762Z,15.40
2023-02-16T13:30:35.073Z,14.70
2023-02-16T13:34:06.546Z,18.20
2023-02-16T13:37:17.041Z,17.90
2023-02-16T13:40:15.329Z,16.30
2023-02-16T13:43:09.998Z,16.50
2023-02-16T13:45:54.179Z,16.00
2023-02-16T13:48:41.538Z,15.30
2023-02-16T13:51:13.967Z,15.40
2023-02-16T13:53:42.509Z,15.10
2023-02-16T13:56:31.031Z,17.70
2023-02-16T13:59:01.282Z,17.50
2023-02-16T14:01:28.530Z,16.40
2023-02-16T14:03:58.490Z,16.50
2023-02-16T14:06:34.272Z,17.70
2023-02-16T14:09:15.534Z,15.00
2023-02-16T14:11:59.506Z,17.70
2023-02-16T14:15:09.712Z,16.30
2023-02-16T14:17:37.019Z,16.50
2023-02-16T14:20:13.596Z,16.20
2023-02-16T14:23:20.915Z,15.00
2023-02-16T14:26:04.751Z,17.10
2023-02-16T14:28:37.012Z,16.90
2023-02-16T14:32:03.259Z,16.90
2023-02-16T14:34:56.293Z,18.00
2023-02-16T14:37:38.878Z,17.40
2023-02-16T14:40:24.079Z,16.90
2023-02-16T14:43:43.956Z,18.00
2023-02-16T14:47:33.035Z,16.00
2023-02-16T14:50:36.615Z,14.30
2023-02-16T14:53:57.965Z,15.60
2023-02-16T14:57:24.846Z,16.60
2023-02-16T15:00:19.890Z,16.00
2023-02-16T15:03:08.164Z,15.50
2023-02-16T15:07:00.262Z,18.10
2023-02-16T15:09:59.558Z,15.10
2023-02-16T15:13:11.348Z,17.70
2023-02-16T15:16:14.010Z,17.20
2023-02-16T15:19:07.852Z,17.80
2023-02-16T15:22:39.989Z,17.50
2023-02-16T15:25:42.275Z,18.10
2023-02-16T15:28:42.897Z,16.90
2023-02-16T15:32:16.707Z,20.10
2023-02-16T15:35:38.867Z,15.20
2023-02-16T15:38:43.383Z,18.50
2023-02-16T15:41:34.594Z,21.00
2023-02-16T15:45:08.842Z,23.90
2023-02-16T15:48:56.697Z,26.30
2023-02-16T15:51:38.899Z,30.70
2023-02-16T15:54:46.838Z,27.10
2023-02-16T15:57:37.481Z,23.10
2023-02-16T16:00:54.709Z,23.50
2023-02-16T16:03:34.886Z,24.50
2023-02-16T16:06:17.692Z,26.10
2023-02-16T16:09:08.493Z,24.20
2023-02-16T16:12:33.188Z,31.10
2023-02-16T16:15:33.367Z,31.70
2023-02-16T16:18:53.429Z,27.50
2023-02-16T16:22:11.787Z,28.80
2023-02-16T16:25:07.884Z,27.80
2023-02-16T16:28:30.814Z,28.50
2023-02-16T16:31:40.625Z,29.10
2023-02-16T16:34:38.732Z,31.10
2023-02-16T16:37:35.734Z,31.70
2023-02-16T16:40:26.452Z,36.10
2023-02-16T16:43:36.636Z,33.00
2023-02-16T16:46:54.206Z,39.60
2023-02-16T16:49:21.473Z,36.40
2023-02-16T16:52:11.077Z,41.20
2023-02-16T16:55:34.894Z,50.80
2023-02-16T16:58:05.405Z,45.70
2023-02-16T17:00:58.953Z,48.30
2023-02-16T17:03:31.616Z,48.60
2023-02-16T17:06:22.073Z,39.70
2023-02-16T17:08:49.627Z,47.70
2023-02-16T17:12:25.158Z,41.00
2023-02-16T17:15:32.691Z,34.80
2023-02-16T17:18:37.789Z,52.50
2023-02-16T17:21:13.916Z,32.40
2023-02-16T17:24:51.752Z,44.40
2023-02-16T17:27:19.923Z,38.90
2023-02-16T17:30:00.906Z,38.00
2023-02-16T17:32:31.208Z,32.30
2023-02-16T17:35:24.350Z,33.70
2023-02-16T17:37:55.317Z,32.00
2023-02-16T17:40:33.919Z,33.70
2023-02-16T17:43:01.313Z,33.10
2023-02-16T17:45:34.969Z,30.80
2023-02-16T17:48:30.442Z,30.10
2023-02-16T17:51:36.499Z,30.60
2023-02-16T17:54:06.567Z,32.60
2023-02-16T17:56:47.053Z,34.90
2023-02-16T17:59:26.108Z,29.70
2023-02-16T18:01:56.044Z,31.60
2023-02-16T18:04:32.927Z,34.00
2023-02-16T18:07:16.823Z,31.10
2023-02-16T18:09:46.102Z,35.20
2023-02-16T18:12:33.826Z,32.70
2023-02-16T18:15:12.992Z,32.40
2023-02-16T18:18:23.418Z,30.90
2023-02-16T18:21:16.618Z,33.90
2023-02-16T18:23:46.764Z,33.50
2023-02-16T18:26:17.040Z,33.80
2023-02-16T18:28:47.029Z,33.40
2023-02-16T18:31:49.106Z,31.80
2023-02-16T18:34:37.650Z,33.30
2023-02-16T18:37:15.097Z,31.50
2023-02-16T18:40:46.364Z,30.60
2023-02-16T18:43:37.271Z,29.60
2023-02-16T18:47:03.070Z,32.40
2023-02-16T18:50:06.781Z,39.10
2023-02-16T18:52:34.461Z,33.60
2023-02-16T18:55:36.094Z,31.60
2023-02-16T18:58:26.572Z,39.10
2023-02-16T19:01:01.217Z,33.90
2023-02-16T19:03:30.192Z,35.90
2023-02-16T19:06:00.623Z,36.20
2023-02-16T19:08:31.447Z,35.40
2023-02-16T19:11:01.908Z,37.60
2023-02-16T19:14:23.103Z,35.50
2023-02-16T19:17:16.944Z,35.20
2023-02-16T19:19:57.584Z,37.90
2023-02-16T19:22:48.890Z,33.50
2023-02-16T19:25:19.310Z,38.40
2023-02-16T19:27:47.268Z,38.00
2023-02-16T19:30:41.252Z,36.20
2023-02-16T19:33:15.596Z,31.80
2023-02-16T19:41:50.717Z,36.40
2023-02-16T19:44:37.984Z,37.30
2023-02-16T19:47:44.802Z,37.70
2023-02-16T19:50:55.524Z,36.40
2023-02-16T19:56:45.512Z,38.30
2023-02-16T19:59:55.987Z,40.00
2023-02-16T20:03:15.138Z,39.70
2023-02-16T20:06:11.092Z,42.00
2023-02-16T20:09:12.632Z,41.90
2023-02-16T20:12:09.203Z,43.40
2023-02-16T20:15:07.891Z,38.40
2023-02-16T20:18:06.202Z,35.80
2023-02-16T20:21:36.144Z,35.40
2023-02-16T20:25:06.268Z,27.60
2023-02-16T20:27:49.493Z,35.30
2023-02-16T20:30:20.834Z,33.10
2023-02-16T20:33:19.042Z,42.50
2023-02-16T20:35:50.006Z,39.10
2023-02-16T20:38:49.396Z,47.40
2023-02-16T20:42:39.685Z,50.40
2023-02-16T20:45:42.526Z,51.10
2023-02-16T20:48:41.785Z,43.60
2023-02-16T20:51:51.793Z,39.90
2023-02-16T20:54:28.250Z,38.30
2023-02-16T20:57:39.944Z,39.50
2023-02-16T21:01:20.569Z,39.80
2023-02-16T21:04:35.552Z,35.70
2023-02-16T21:07:55.476Z,32.90
2023-02-16T21:11:19.160Z,34.40
2023-02-16T21:13:48.863Z,36.80
2023-02-16T21:16:59.084Z,36.40
2023-02-16T21:19:49.279Z,36.80
2023-02-16T21:23:05.461Z,40.80
2023-02-16T21:26:46.056Z,38.70
2023-02-16T21:29:48.149Z,42.20
2023-02-16T21:33:56.286Z,40.60
2023-02-16T21:37:11.908Z,42.80
2023-02-16T21:40:42.306Z,38.50
2023-02-16T21:44:39.805Z,46.30
2023-02-16T21:48:44.427Z,49.00
2023-02-16T21:52:28.783Z,45.20
2023-02-16T21:55:35.413Z,48.90
2023-02-16T21:59:43.541Z,35.70
2023-02-16T22:03:53.386Z,37.70
2023-02-16T22:07:48.393Z,37.60
2023-02-16T22:11:46.481Z,35.70
2023-02-16T22:19:25.644Z,42.40
2023-02-16T22:22:56.351Z,38.40
2023-02-16T22:26:45.954Z,39.60
2023-02-16T22:30:01.129Z,44.30
2023-02-16T22:33:41.937Z,53.40
2023-02-16T22:37:09.779Z,36.60
2023-02-16T22:40:42.887Z,36.40
2023-02-16T22:43:59.743Z,42.50
2023-02-16T22:47:50.501Z,41.70
2023-02-16T22:51:47.498Z,37.70
2023-02-16T22:55:55.714Z,45.40
2023-02-16T22:59:43.680Z,56.80
2023-02-16T23:03:51.651Z,44.10
2023-02-16T23:07:55.900Z,47.30
2023-02-16T23:11:43.449Z,48.50
2023-02-16T23:15:36.519Z,45.30
2023-02-16T23:19:17.875Z,33.20
2023-02-16T23:23:18.861Z,35.70
2023-02-16T23:27:18.355Z,40.60
2023-02-16T23:31:26.566Z,40.50
2023-02-16T23:35:28.114Z,39.60
2023-02-16T23:39:36.222Z,40.40
2023-02-16T23:43:45.455Z,39.50
2023-02-16T23:47:54.477Z,39.70
2023-02-16T23:52:03.543Z,39.60
2023-02-16T23:56:11.818Z,39.70
